createdAt,value
2023-04-16T00:01:53.692Z,11.01
2023-04-16T00:04:20.679Z,10.99
2023-04-16T00:06:47.472Z,11.01
2023-04-16T00:09:14.720Z,11.02
2023-04-16T00:11:41.450Z,11.04
2023-04-16T00:14:08.277Z,11.08
2023-04-16T00:16:35.066Z,11.05
2023-04-16T00:19:01.919Z,11.07
2023-04-16T00:21:28.642Z,11.07
2023-04-16T00:23:55.396Z,11.07
2023-04-16T00:26:22.150Z,11.03
2023-04-16T00:28:48.876Z,11.08
2023-04-16T00:31:15.805Z,11.05
2023-04-16T00:33:42.651Z,11.06
2023-04-16T00:36:09.725Z,11.07
2023-04-16T00:38:37.425Z,11.09
2023-04-16T00:41:04.205Z,11.11
2023-04-16T00:43:31.834Z,11.12
2023-04-16T00:45:59.133Z,11.13
2023-04-16T00:48:28.301Z,11.15
2023-04-16T00:50:55.982Z,11.15
2023-04-16T00:53:23.301Z,11.14
2023-04-16T00:55:50.716Z,11.15
2023-04-16T00:58:17.628Z,11.13
2023-04-16T01:00:44.363Z,11.15
2023-04-16T01:03:11.544Z,11.15
2023-04-16T01:05:38.968Z,11.15
2023-04-16T01:08:06.088Z,11.15
2023-04-16T01:10:32.893Z,11.15
2023-04-16T01:12:59.662Z,11.16
2023-04-16T01:15:26.509Z,11.18
2023-04-16T01:17:53.289Z,11.18
2023-04-16T01:20:20.049Z,11.20
2023-04-16T01:22:46.853Z,11.22
2023-04-16T01:25:16.797Z,11.22
2023-04-16T01:27:43.657Z,11.24
2023-04-16T01:30:10.727Z,11.26
2023-04-16T01:32:37.624Z,11.27
2023-04-16T01:35:04.688Z,11.26
2023-04-16T01:37:31.623Z,11.30
2023-04-16T01:39:58.340Z,11.30
2023-04-16T01:42:25.045Z,11.30
2023-04-16T01:44:51.800Z,11.33
2023-04-16T01:47:18.724Z,11.34
2023-04-16T01:49:48.265Z,11.38
2023-04-16T01:52:15.026Z,11.38
2023-04-16T01:54:41.890Z,11.41
2023-04-16T01:57:08.636Z,11.45
2023-04-16T01:59:35.446Z,11.47
2023-04-16T02:02:11.331Z,11.50
2023-04-16T02:04:43.179Z,11.53
2023-04-16T02:07:10.552Z,11.51
2023-04-16T02:09:38.562Z,11.52
2023-04-16T02:12:06.055Z,11.55
2023-04-16T02:14:33.653Z,11.58
2023-04-16T02:17:01.414Z,11.59
2023-04-16T02:19:28.175Z,11.64
2023-04-16T02:21:55.485Z,11.64
2023-04-16T02:24:22.268Z,11.66
2023-04-16T02:26:49.095Z,11.68
2023-04-16T02:29:16.717Z,11.66
2023-04-16T02:31:43.563Z,11.63
2023-04-16T02:34:10.429Z,11.64
2023-04-16T02:36:37.136Z,11.61
2023-04-16T02:39:04.689Z,11.57
2023-04-16T02:41:31.404Z,11.62
2023-04-16T02:43:58.204Z,11.67
2023-04-16T02:46:25.288Z,11.72
2023-04-16T02:48:52.060Z,11.75
2023-04-16T02:51:18.775Z,11.78
2023-04-16T02:53:46.253Z,11.82
2023-04-16T02:56:13.181Z,11.89
2023-04-16T02:58:40.051Z,11.88
2023-04-16T03:01:07.157Z,11.84
2023-04-16T03:03:33.881Z,11.86
2023-04-16T03:06:00.776Z,11.85
2023-04-16T03:08:27.717Z,11.85
2023-04-16T03:10:54.505Z,11.85
2023-04-16T03:13:21.425Z,11.87
2023-04-16T03:15:49.982Z,11.89
2023-04-16T03:18:16.929Z,11.88
2023-04-16T03:20:43.663Z,11.86
2023-04-16T03:23:10.439Z,11.85
2023-04-16T03:25:37.209Z,11.83
2023-04-16T03:28:04.187Z,11.81
2023-04-16T03:30:31.615Z,11.76
2023-04-16T03:32:58.391Z,11.72
2023-04-16T03:35:25.129Z,11.69
2023-04-16T03:37:51.921Z,11.59
2023-04-16T03:40:18.624Z,11.48
2023-04-16T03:42:45.506Z,11.41
2023-04-16T03:45:12.312Z,11.28
2023-04-16T03:47:39.119Z,11.16
2023-04-16T03:50:06.278Z,11.03
2023-04-16T03:52:33.038Z,10.94
2023-04-16T03:54:59.821Z,10.89
2023-04-16T03:57:26.571Z,10.83
2023-04-16T03:59:53.303Z,10.81
2023-04-16T04:02:20.131Z,10.79
2023-04-16T04:04:47.177Z,10.73
2023-04-16T04:07:14.042Z,10.75
2023-04-16T04:09:40.851Z,10.73
2023-04-16T04:12:07.623Z,10.65
2023-04-16T04:14:39.788Z,10.61
2023-04-16T04:17:07.232Z,10.54
2023-04-16T04:19:34.005Z,10.53
2023-04-16T04:22:00.846Z,10.53
2023-04-16T04:24:27.564Z,10.55
2023-04-16T04:26:54.260Z,10.52
2023-04-16T04:29:21.290Z,10.47
2023-04-16T04:31:48.096Z,10.39
2023-04-16T04:34:14.821Z,10.35
2023-04-16T04:36:41.722Z,10.32
2023-04-16T04:39:08.784Z,10.29
2023-04-16T04:41:36.267Z,10.29
2023-04-16T04:44:03.049Z,10.27
2023-04-16T04:46:30.485Z,10.22
2023-04-16T04:48:57.211Z,10.17
2023-04-16T04:51:24.088Z,10.12
2023-04-16T04:53:50.828Z,10.07
2023-04-16T04:56:17.582Z,10.02
2023-04-16T04:58:44.429Z,9.98
2023-04-16T05:01:11.308Z,9.91
2023-04-16T05:03:38.220Z,9.91
2023-04-16T05:06:05.210Z,9.89
2023-04-16T05:08:31.950Z,9.85
2023-04-16T05:10:58.763Z,9.86
2023-04-16T05:13:25.547Z,9.86
2023-04-16T05:15:52.264Z,9.85
2023-04-16T05:18:19.012Z,9.83
2023-04-16T05:20:45.758Z,9.82
2023-04-16T05:23:12.545Z,9.83
2023-04-16T05:25:39.296Z,9.89
2023-04-16T05:28:06.092Z,9.90
2023-04-16T05:30:32.898Z,9.91
2023-04-16T05:33:00.018Z,9.87
2023-04-16T05:35:26.942Z,9.88
2023-04-16T05:37:53.684Z,9.87
2023-04-16T05:40:20.650Z,9.90
2023-04-16T05:42:47.392Z,9.91
2023-04-16T05:45:14.091Z,9.94
2023-04-16T05:47:40.989Z,10.02
2023-04-16T05:50:08.011Z,10.05
2023-04-16T05:52:34.723Z,10.07
2023-04-16T05:55:01.945Z,10.08
2023-04-16T05:57:29.390Z,10.15
2023-04-16T05:59:56.148Z,10.20
2023-04-16T06:02:23.080Z,10.23
2023-04-16T06:04:50.100Z,10.26
2023-04-16T06:07:16.895Z,10.27
2023-04-16T06:09:43.592Z,10.29
2023-04-16T06:12:10.717Z,10.35
2023-04-16T06:14:37.427Z,10.40
2023-04-16T06:17:04.150Z,10.47
2023-04-16T06:19:30.935Z,10.53
2023-04-16T06:21:58.056Z,10.67
2023-04-16T06:24:24.841Z,10.78
2023-04-16T06:26:51.650Z,11.04
2023-04-16T06:29:18.401Z,11.30
2023-04-16T06:31:45.391Z,11.59
2023-04-16T06:34:12.268Z,11.90
2023-04-16T06:36:39.036Z,12.30
2023-04-16T06:39:05.815Z,12.66
2023-04-16T06:41:32.621Z,12.95
2023-04-16T06:43:59.355Z,13.30
2023-04-16T06:46:26.144Z,13.71
2023-04-16T06:48:52.939Z,14.03
2023-04-16T06:51:19.705Z,14.41
2023-04-16T06:53:46.467Z,14.85
2023-04-16T06:56:13.215Z,15.26
2023-04-16T06:58:39.930Z,15.67
2023-04-16T07:01:06.743Z,16.01
2023-04-16T07:03:34.140Z,16.34
2023-04-16T07:06:01.135Z,16.51
2023-04-16T07:08:27.904Z,16.73
2023-04-16T07:10:54.858Z,16.96
2023-04-16T07:13:21.767Z,17.19
2023-04-16T07:15:48.478Z,17.35
2023-04-16T07:18:15.958Z,17.60
2023-04-16T07:20:42.789Z,17.97
2023-04-16T07:23:09.575Z,18.30
2023-04-16T07:25:36.388Z,18.48
2023-04-16T07:28:03.927Z,18.82
2023-04-16T07:30:34.322Z,19.01
2023-04-16T07:33:03.121Z,19.25
2023-04-16T07:35:31.157Z,19.49
2023-04-16T07:37:58.082Z,19.57
2023-04-16T07:40:24.972Z,19.74
2023-04-16T07:42:51.865Z,20.10
2023-04-16T07:45:19.126Z,20.43
2023-04-16T07:47:46.242Z,20.41
2023-04-16T07:50:13.462Z,20.40
2023-04-16T07:52:42.484Z,20.43
2023-04-16T07:55:09.791Z,20.44
2023-04-16T07:57:36.912Z,20.62
2023-04-16T08:00:07.662Z,20.62
2023-04-16T08:02:34.604Z,20.84
2023-04-16T08:05:01.510Z,20.88
2023-04-16T08:07:28.375Z,21.07
2023-04-16T08:09:55.502Z,21.25
2023-04-16T08:12:22.453Z,21.41
2023-04-16T08:14:49.191Z,21.34
2023-04-16T08:17:16.796Z,21.08
2023-04-16T08:19:45.318Z,21.21
2023-04-16T08:22:12.803Z,21.37
2023-04-16T08:24:40.090Z,21.32
2023-04-16T08:27:17.758Z,21.35
2023-04-16T08:29:46.447Z,21.43
2023-04-16T08:32:13.628Z,21.70
2023-04-16T08:34:40.596Z,21.75
2023-04-16T08:37:07.376Z,21.89
2023-04-16T08:39:34.310Z,22.01
2023-04-16T08:42:04.881Z,21.92
2023-04-16T08:44:37.717Z,21.97
2023-04-16T08:47:09.545Z,22.02
2023-04-16T08:49:36.970Z,22.12
2023-04-16T08:52:09.519Z,22.15
2023-04-16T08:54:44.029Z,22.40
2023-04-16T08:57:12.121Z,22.59
2023-04-16T08:59:40.470Z,22.54
2023-04-16T09:02:07.687Z,22.60
2023-04-16T09:04:37.095Z,22.37
2023-04-16T09:07:05.455Z,22.40
2023-04-16T09:09:34.663Z,22.41
2023-04-16T09:12:01.782Z,22.45
2023-04-16T09:14:29.160Z,22.56
2023-04-16T09:16:56.256Z,22.67
2023-04-16T09:19:23.898Z,22.66
2023-04-16T09:21:51.186Z,22.63
2023-04-16T09:24:18.800Z,22.69
2023-04-16T09:26:46.387Z,22.62
2023-04-16T09:29:34.073Z,22.49
2023-04-16T09:32:06.342Z,22.63
2023-04-16T09:34:34.611Z,22.77
2023-04-16T09:37:21.557Z,22.55
2023-04-16T09:40:05.025Z,22.75
2023-04-16T09:42:34.375Z,22.78
2023-04-16T09:45:04.166Z,22.64
2023-04-16T09:47:46.004Z,22.70
2023-04-16T09:50:18.605Z,22.85
2023-04-16T09:52:50.272Z,22.79
2023-04-16T09:55:17.058Z,22.73
2023-04-16T09:57:43.750Z,22.67
2023-04-16T10:00:11.479Z,22.73
2023-04-16T10:02:42.062Z,22.77
2023-04-16T10:05:09.779Z,22.92
2023-04-16T10:07:37.902Z,22.90
2023-04-16T10:10:05.476Z,22.82
2023-04-16T10:12:32.965Z,22.92
2023-04-16T10:15:00.220Z,22.70
2023-04-16T10:17:30.108Z,22.68
2023-04-16T10:19:58.576Z,22.78
2023-04-16T10:22:26.598Z,22.73
2023-04-16T10:24:54.905Z,22.79
2023-04-16T10:27:22.026Z,22.98
2023-04-16T10:29:49.673Z,23.11
2023-04-16T10:32:18.760Z,22.97
2023-04-16T10:34:46.068Z,23.02
2023-04-16T10:37:12.843Z,22.94
2023-04-16T10:39:39.599Z,22.79
2023-04-16T10:42:12.995Z,22.71
2023-04-16T10:44:44.314Z,22.68
2023-04-16T10:47:13.700Z,22.88
2023-04-16T10:49:41.264Z,23.12
2023-04-16T10:52:17.467Z,23.07
2023-04-16T10:54:44.572Z,23.13
2023-04-16T10:57:18.402Z,23.11
2023-04-16T10:59:46.147Z,23.22
2023-04-16T11:02:19.747Z,23.33
2023-04-16T11:04:48.654Z,23.52
2023-04-16T11:07:20.709Z,23.48
2023-04-16T11:10:12.888Z,23.50
2023-04-16T11:12:41.168Z,23.53
2023-04-16T11:15:13.228Z,23.60
2023-04-16T11:17:48.121Z,23.58
2023-04-16T11:20:28.762Z,23.68
2023-04-16T11:22:57.612Z,23.78
2023-04-16T11:25:34.365Z,23.73
2023-04-16T11:28:02.567Z,23.79
2023-04-16T11:30:30.532Z,23.96
2023-04-16T11:32:58.660Z,23.94
2023-04-16T11:35:25.590Z,24.00
2023-04-16T11:37:57.179Z,23.96
2023-04-16T11:40:25.229Z,24.08
2023-04-16T11:42:52.036Z,24.25
2023-04-16T11:45:19.563Z,24.07
2023-04-16T11:47:52.334Z,23.77
2023-04-16T11:50:24.158Z,23.57
2023-04-16T11:52:52.752Z,23.62
2023-04-16T11:55:20.709Z,23.56
2023-04-16T11:57:47.516Z,23.63
2023-04-16T12:00:15.337Z,23.41
2023-04-16T12:02:44.849Z,23.05
2023-04-16T12:05:31.442Z,23.19
2023-04-16T12:07:59.717Z,23.09
2023-04-16T12:10:27.347Z,22.70
2023-04-16T12:12:54.286Z,22.52
2023-04-16T12:15:21.105Z,22.51
2023-04-16T12:17:48.872Z,22.40
2023-04-16T12:20:16.012Z,22.36
2023-04-16T12:22:47.687Z,22.16
2023-04-16T12:25:16.478Z,22.35
2023-04-16T12:27:53.436Z,22.60
2023-04-16T12:30:22.809Z,22.69
2023-04-16T12:32:52.159Z,22.74
2023-04-16T12:35:32.600Z,22.69
2023-04-16T12:38:00.454Z,22.86
2023-04-16T12:40:27.690Z,22.88
2023-04-16T12:42:55.029Z,22.82
2023-04-16T12:45:22.602Z,22.80
2023-04-16T12:47:50.616Z,22.87
2023-04-16T12:50:17.846Z,23.04
2023-04-16T12:52:44.759Z,23.05
2023-04-16T12:55:12.196Z,23.13
2023-04-16T12:57:38.936Z,22.96
2023-04-16T13:00:06.830Z,22.99
2023-04-16T13:02:34.202Z,22.90
2023-04-16T13:05:01.773Z,22.94
2023-04-16T13:07:29.134Z,22.98
2023-04-16T13:09:55.866Z,23.01
2023-04-16T13:12:22.615Z,23.00
2023-04-16T13:14:49.292Z,23.01
2023-04-16T13:17:16.266Z,22.98
2023-04-16T13:19:43.043Z,22.77
2023-04-16T13:22:09.912Z,22.64
2023-04-16T13:24:36.702Z,22.49
2023-04-16T13:27:03.683Z,22.60
2023-04-16T13:29:30.549Z,22.73
2023-04-16T13:31:57.678Z,22.87
2023-04-16T13:34:24.465Z,22.77
2023-04-16T13:36:51.154Z,22.77
2023-04-16T13:39:18.331Z,22.72
2023-04-16T13:41:45.085Z,22.65
2023-04-16T13:44:11.811Z,22.58
2023-04-16T13:46:38.651Z,22.72
2023-04-16T13:49:05.545Z,22.65
2023-04-16T13:51:33.141Z,22.73
2023-04-16T13:53:59.897Z,22.80
2023-04-16T13:56:26.749Z,23.07
2023-04-16T13:58:53.590Z,22.90
2023-04-16T14:01:20.726Z,22.90
2023-04-16T14:03:47.621Z,22.66
2023-04-16T14:06:15.162Z,22.64
2023-04-16T14:08:41.883Z,22.55
2023-04-16T14:11:09.321Z,22.31
2023-04-16T14:13:36.784Z,22.28
2023-04-16T14:16:03.950Z,22.31
2023-04-16T14:18:30.777Z,22.17
2023-04-16T14:20:58.733Z,22.07
2023-04-16T14:23:25.556Z,21.92
2023-04-16T14:25:52.312Z,21.95
2023-04-16T14:28:20.816Z,21.63
2023-04-16T14:30:47.573Z,21.62
2023-04-16T14:33:14.493Z,21.46
2023-04-16T14:35:41.322Z,21.41
2023-04-16T14:38:08.143Z,21.58
2023-04-16T14:40:35.047Z,21.67
2023-04-16T14:43:01.869Z,21.67
2023-04-16T14:45:30.107Z,21.62
2023-04-16T14:47:57.185Z,21.46
2023-04-16T14:50:23.920Z,21.41
2023-04-16T14:52:51.269Z,21.35
2023-04-16T14:55:18.189Z,21.62
2023-04-16T14:57:44.953Z,22.02
2023-04-16T15:00:13.412Z,22.29
2023-04-16T15:02:40.671Z,22.28
2023-04-16T15:05:09.913Z,22.27
2023-04-16T15:07:37.231Z,22.37
2023-04-16T15:10:04.729Z,22.38
2023-04-16T15:12:31.589Z,22.36
2023-04-16T15:14:59.922Z,22.12
2023-04-16T15:17:26.905Z,21.75
2023-04-16T15:19:53.733Z,21.72
2023-04-16T15:22:20.474Z,21.74
2023-04-16T15:24:47.258Z,21.91
2023-04-16T15:27:14.814Z,21.75
2023-04-16T15:29:41.778Z,21.69
2023-04-16T15:32:08.630Z,21.63
2023-04-16T15:34:35.414Z,21.74
2023-04-16T15:37:02.226Z,21.88
2023-04-16T15:39:29.247Z,21.84
2023-04-16T15:42:00.469Z,21.92
2023-04-16T15:44:28.396Z,22.04
2023-04-16T15:46:55.174Z,21.96
2023-04-16T15:49:21.942Z,21.72
2023-04-16T15:51:48.705Z,21.56
2023-04-16T15:54:15.490Z,21.49
2023-04-16T15:56:42.227Z,21.67
2023-04-16T15:59:09.478Z,21.65
2023-04-16T16:01:36.605Z,21.53
2023-04-16T16:04:03.726Z,21.51
2023-04-16T16:06:31.635Z,21.35
2023-04-16T16:08:59.312Z,21.35
2023-04-16T16:11:26.305Z,21.44
2023-04-16T16:13:53.072Z,21.38
2023-04-16T16:16:19.912Z,21.21
2023-04-16T16:18:47.592Z,21.06
2023-04-16T16:21:14.356Z,20.85
2023-04-16T16:23:41.477Z,20.71
2023-04-16T16:26:08.245Z,20.60
2023-04-16T16:28:37.928Z,20.63
2023-04-16T16:31:06.195Z,20.71
2023-04-16T16:33:33.411Z,20.47
2023-04-16T16:36:00.181Z,20.39
2023-04-16T16:38:27.201Z,20.29
2023-04-16T16:40:53.906Z,20.13
2023-04-16T16:43:20.802Z,20.10
2023-04-16T16:45:47.579Z,20.02
2023-04-16T16:48:14.526Z,19.97
2023-04-16T16:50:41.315Z,19.78
2023-04-16T16:53:08.086Z,19.73
2023-04-16T16:55:35.666Z,19.72
2023-04-16T16:58:03.304Z,19.58
2023-04-16T17:00:30.109Z,19.54
2023-04-16T17:02:57.013Z,19.46
2023-04-16T17:05:23.880Z,19.38
2023-04-16T17:07:50.906Z,19.39
2023-04-16T17:10:21.146Z,19.21
2023-04-16T17:12:49.429Z,19.12
2023-04-16T17:15:19.148Z,19.05
2023-04-16T17:17:47.361Z,18.89
2023-04-16T17:20:14.424Z,18.86
2023-04-16T17:22:41.246Z,18.94
2023-04-16T17:25:08.389Z,18.83
2023-04-16T17:27:35.274Z,18.74
2023-04-16T17:30:03.277Z,18.66
2023-04-16T17:32:32.537Z,18.64
2023-04-16T17:35:01.881Z,18.59
2023-04-16T17:37:28.735Z,18.56
2023-04-16T17:39:55.586Z,18.53
2023-04-16T17:42:22.353Z,18.49
2023-04-16T17:44:49.106Z,18.45
2023-04-16T17:47:15.925Z,18.41
2023-04-16T17:49:42.777Z,18.42
2023-04-16T17:52:09.615Z,18.35
2023-04-16T17:54:36.395Z,18.36
2023-04-16T17:57:03.166Z,18.24
2023-04-16T17:59:30.047Z,18.19
2023-04-16T18:01:56.879Z,18.06
2023-04-16T18:04:23.893Z,17.91
2023-04-16T18:06:50.988Z,17.72
2023-04-16T18:09:19.297Z,17.56
2023-04-16T18:11:46.129Z,17.41
2023-04-16T18:14:16.929Z,17.29
2023-04-16T18:16:43.790Z,17.15
2023-04-16T18:19:10.518Z,17.01
2023-04-16T18:21:37.311Z,16.91
2023-04-16T18:24:04.283Z,16.81
2023-04-16T18:26:33.271Z,16.72
2023-04-16T18:29:03.068Z,16.55
2023-04-16T18:31:29.924Z,16.54
2023-04-16T18:33:58.309Z,16.47
2023-04-16T18:36:26.943Z,16.40
2023-04-16T18:41:24.194Z,16.22
2023-04-16T18:43:51.056Z,16.11
2023-04-16T18:46:18.011Z,16.05
2023-04-16T18:48:45.353Z,15.96
2023-04-16T18:51:14.297Z,15.89
2023-04-16T18:53:44.456Z,15.82
2023-04-16T18:56:11.766Z,15.76
2023-04-16T18:58:38.568Z,15.68
2023-04-16T19:01:07.922Z,15.61
2023-04-16T19:03:34.848Z,15.53
2023-04-16T19:06:02.105Z,15.46
2023-04-16T19:08:28.833Z,15.43
2023-04-16T19:10:55.746Z,15.36
2023-04-16T19:13:22.486Z,15.29
2023-04-16T19:15:49.240Z,15.17
2023-04-16T19:18:16.228Z,15.06
2023-04-16T19:20:42.968Z,14.96
2023-04-16T19:23:09.679Z,14.86
2023-04-16T19:25:39.414Z,14.79
2023-04-16T19:28:06.202Z,14.67
2023-04-16T19:30:33.011Z,14.66
2023-04-16T19:32:59.752Z,14.63
2023-04-16T19:35:27.263Z,14.59
2023-04-16T19:37:56.301Z,14.53
2023-04-16T19:40:23.054Z,14.48
2023-04-16T19:42:49.943Z,14.42
2023-04-16T19:45:17.746Z,14.38
2023-04-16T19:47:44.898Z,14.30
2023-04-16T19:50:11.909Z,14.23
2023-04-16T19:52:39.171Z,14.21
2023-04-16T19:55:07.105Z,14.20
2023-04-16T19:57:33.902Z,14.16
2023-04-16T20:00:00.921Z,14.13
2023-04-16T20:02:30.433Z,14.08
2023-04-16T20:04:57.225Z,14.04
2023-04-16T20:07:23.984Z,13.97
2023-04-16T20:09:50.715Z,13.96
2023-04-16T20:12:18.683Z,13.93
2023-04-16T20:14:45.430Z,13.88
2023-04-16T20:17:12.328Z,13.78
2023-04-16T20:19:39.148Z,13.73
2023-04-16T20:22:06.706Z,13.67
2023-04-16T20:24:34.351Z,13.57
2023-04-16T20:27:01.893Z,13.48
2023-04-16T20:29:28.715Z,13.40
2023-04-16T20:31:55.518Z,13.36
2023-04-16T20:34:22.292Z,13.35
2023-04-16T20:36:48.989Z,13.35
2023-04-16T20:39:20.530Z,13.34
2023-04-16T20:41:56.654Z,13.38
2023-04-16T20:44:26.438Z,13.41
2023-04-16T20:46:55.059Z,13.44
2023-04-16T20:49:22.140Z,13.48
2023-04-16T20:51:48.958Z,13.53
2023-04-16T20:54:15.833Z,13.59
2023-04-16T20:56:43.359Z,13.66
2023-04-16T20:59:10.810Z,13.69
2023-04-16T21:01:37.866Z,13.70
2023-04-16T21:04:04.943Z,13.74
2023-04-16T21:06:33.117Z,13.76
2023-04-16T21:08:59.881Z,13.77
2023-04-16T21:11:27.223Z,13.77
2023-04-16T21:13:53.949Z,13.77
2023-04-16T21:16:20.810Z,13.79
2023-04-16T21:18:47.718Z,13.79
2023-04-16T21:21:14.500Z,13.80
2023-04-16T21:23:41.287Z,13.79
2023-04-16T21:26:08.132Z,13.77
2023-04-16T21:28:34.885Z,13.75
2023-04-16T21:31:01.719Z,13.67
2023-04-16T21:33:28.670Z,13.65
2023-04-16T21:35:55.514Z,13.60
2023-04-16T21:38:22.507Z,13.59
2023-04-16T21:40:51.430Z,13.56
2023-04-16T21:43:18.167Z,13.51
2023-04-16T21:45:44.948Z,13.52
2023-04-16T21:48:11.999Z,13.45
2023-04-16T21:50:39.156Z,13.39
2023-04-16T21:53:06.706Z,13.32
2023-04-16T21:55:34.885Z,13.23
2023-04-16T21:58:03.185Z,13.10
2023-04-16T22:00:30.389Z,13.01
2023-04-16T22:03:00.146Z,12.95
2023-04-16T22:05:27.209Z,12.85
2023-04-16T22:07:53.913Z,12.78
2023-04-16T22:10:20.870Z,12.73
2023-04-16T22:12:47.592Z,12.67
2023-04-16T22:15:14.460Z,12.58
2023-04-16T22:17:41.351Z,12.53
2023-04-16T22:20:11.655Z,12.52
2023-04-16T22:22:41.833Z,12.54
2023-04-16T22:25:09.865Z,12.59
2023-04-16T22:27:36.985Z,12.67
2023-04-16T22:30:04.285Z,12.74
2023-04-16T22:32:31.101Z,12.81
2023-04-16T22:34:57.889Z,12.85
2023-04-16T22:37:24.975Z,12.86
2023-04-16T22:39:51.758Z,12.89
2023-04-16T22:42:18.482Z,12.92
2023-04-16T22:44:45.293Z,12.92
2023-04-16T22:47:12.011Z,12.92
2023-04-16T22:49:38.729Z,13.02
2023-04-16T22:52:05.683Z,12.97
2023-04-16T22:54:33.179Z,12.96
2023-04-16T22:57:00.051Z,12.93
2023-04-16T22:59:26.859Z,12.97
2023-04-16T23:01:53.719Z,12.97
2023-04-16T23:04:20.699Z,12.94
2023-04-16T23:06:47.506Z,12.93
2023-04-16T23:09:14.541Z,12.93
2023-04-16T23:11:41.402Z,12.88
2023-04-16T23:14:08.485Z,12.88
2023-04-16T23:16:35.396Z,12.84
2023-04-16T23:19:02.162Z,12.71
2023-04-16T23:21:28.997Z,12.83
2023-04-16T23:23:57.233Z,12.83
2023-04-16T23:26:23.964Z,12.84
2023-04-16T23:28:50.696Z,12.78
2023-04-16T23:31:17.445Z,12.82
2023-04-16T23:33:44.178Z,12.83
2023-04-16T23:36:10.964Z,12.81
2023-04-16T23:38:37.704Z,12.82
2023-04-16T23:41:04.539Z,12.73
2023-04-16T23:43:31.335Z,12.83
2023-04-16T23:45:58.083Z,12.82
2023-04-16T23:48:24.881Z,12.81
2023-04-16T23:50:51.655Z,12.79
2023-04-16T23:53:18.418Z,12.78
2023-04-16T23:55:45.151Z,12.77
2023-04-16T23:58:11.884Z,12.78
